createdAt,value
2019-06-10T00:01:28.462Z,100773.13
2019-06-10T00:04:02.628Z,100766.03
2019-06-10T00:06:32.782Z,100768.95
2019-06-10T00:09:06.421Z,100765.27
2019-06-10T00:11:37.400Z,100775.97
2019-06-10T00:14:10.760Z,100771.33
2019-06-10T00:16:41.742Z,100776.61
2019-06-10T00:19:13.062Z,100776.23
2019-06-10T00:21:44.302Z,100776.33
2019-06-10T00:24:15.933Z,100757.84
2019-06-10T00:26:47.252Z,100770.51
2019-06-10T00:29:18.552Z,100763.48
2019-06-10T00:31:50.803Z,100758.55
2019-06-10T00:34:22.295Z,100753.34
2019-06-10T00:36:53.702Z,100750.59
2019-06-10T00:39:24.813Z,100752.63
2019-06-10T00:41:56.182Z,100751.31
2019-06-10T00:44:27.513Z,100752.55
2019-06-10T00:47:00.092Z,100747.83
2019-06-10T00:49:31.750Z,100749.66
2019-06-10T00:52:04.357Z,100750.05
2019-06-10T00:54:36.152Z,100749.30
2019-06-10T00:57:07.822Z,100748.58
2019-06-10T00:59:41.258Z,100746.50
2019-06-10T01:02:14.022Z,100742.35
2019-06-10T01:04:45.273Z,100741.39
2019-06-10T01:07:16.904Z,100742.14
2019-06-10T01:09:48.192Z,100739.14
2019-06-10T01:12:21.117Z,100736.48
2019-06-10T01:14:52.554Z,100735.91
2019-06-10T01:17:24.132Z,100733.08
2019-06-10T01:19:55.552Z,100732.86
2019-06-10T01:22:28.232Z,100728.63
2019-06-10T01:25:01.679Z,100723.69
2019-06-10T01:27:33.072Z,100721.22
2019-06-10T01:30:10.278Z,100714.22
2019-06-10T01:32:37.763Z,100709.95
2019-06-10T01:35:11.529Z,100700.48
2019-06-10T01:37:42.512Z,100705.04
2019-06-10T01:40:16.363Z,100702.20
2019-06-10T01:42:47.709Z,100706.08
2019-06-10T01:45:21.121Z,100697.17
2019-06-10T01:47:52.202Z,100692.33
2019-06-10T01:50:26.582Z,100703.34
2019-06-10T01:52:57.939Z,100697.63
2019-06-10T01:55:31.205Z,100698.13
2019-06-10T01:58:02.793Z,100689.89
2019-06-10T02:00:44.303Z,100690.44
2019-06-10T02:03:18.119Z,100695.74
2019-06-10T02:05:51.468Z,100689.70
2019-06-10T02:08:22.309Z,100697.73
2019-06-10T02:10:54.023Z,100689.13
2019-06-10T02:13:32.963Z,100689.78
2019-06-10T02:16:06.122Z,100690.08
2019-06-10T02:18:37.543Z,100686.56
2019-06-10T02:21:11.545Z,100684.95
2019-06-10T02:23:42.353Z,100685.70
2019-06-10T02:26:15.309Z,100675.09
2019-06-10T02:28:47.173Z,100675.30
2019-06-10T02:31:27.516Z,100676.22
2019-06-10T02:33:52.324Z,100679.73
2019-06-10T02:36:31.190Z,100674.53
2019-06-10T02:38:57.354Z,100673.97
2019-06-10T02:41:35.304Z,100675.95
2019-06-10T02:44:04.380Z,100671.88
2019-06-10T02:46:36.611Z,100674.05
2019-06-10T02:49:28.369Z,100662.79
2019-06-10T02:51:43.578Z,100668.28
2019-06-10T02:54:16.872Z,100665.04
2019-06-10T02:56:47.354Z,100665.04
2019-06-10T02:59:20.400Z,100666.39
2019-06-10T03:01:53.642Z,100661.64
2019-06-10T03:04:30.833Z,100653.62
2019-06-10T03:06:57.724Z,100656.45
2019-06-10T03:09:31.874Z,100653.15
2019-06-10T03:12:04.810Z,100653.91
2019-06-10T03:14:35.458Z,100654.19
2019-06-10T03:17:12.452Z,100654.73
2019-06-10T03:19:50.075Z,100649.44
2019-06-10T03:22:17.915Z,100644.91
2019-06-10T03:24:49.535Z,100650.67
2019-06-10T03:27:23.160Z,100651.63
2019-06-10T03:29:53.712Z,100654.66
2019-06-10T03:32:32.588Z,100653.70
2019-06-10T03:34:58.038Z,100653.15
2019-06-10T03:37:29.502Z,100657.59
2019-06-10T03:40:02.545Z,100654.94
2019-06-10T03:42:34.083Z,100647.17
2019-06-10T03:45:08.366Z,100653.25
2019-06-10T03:47:39.173Z,100654.66
2019-06-10T03:50:13.217Z,100655.62
2019-06-10T03:52:45.253Z,100654.08
2019-06-10T03:55:19.212Z,100655.03
2019-06-10T03:57:52.645Z,100654.66
2019-06-10T04:00:25.607Z,100654.37
2019-06-10T04:02:56.943Z,100655.31
2019-06-10T04:05:28.891Z,100660.50
2019-06-10T04:08:02.192Z,100665.23
2019-06-10T04:10:33.533Z,100661.93
2019-06-10T04:13:04.983Z,100664.09
2019-06-10T04:15:36.503Z,100660.84
2019-06-10T04:18:08.093Z,100656.49
2019-06-10T04:20:39.452Z,100650.37
2019-06-10T04:23:12.119Z,100654.52
2019-06-10T04:25:44.383Z,100651.40
2019-06-10T04:28:15.613Z,100645.28
2019-06-10T04:30:46.762Z,100647.32
2019-06-10T04:33:18.526Z,100644.14
2019-06-10T04:35:53.803Z,100636.45
2019-06-10T04:38:26.328Z,100635.92
2019-06-10T04:40:59.483Z,100639.27
2019-06-10T04:43:32.551Z,100631.30
2019-06-10T04:46:05.192Z,100637.50
2019-06-10T04:48:36.463Z,100635.67
2019-06-10T04:51:08.063Z,100628.38
2019-06-10T04:53:41.064Z,100636.33
2019-06-10T04:56:13.212Z,100628.53
2019-06-10T04:58:44.673Z,100639.20
2019-06-10T05:01:16.322Z,100636.39
2019-06-10T05:03:48.007Z,100640.59
2019-06-10T05:06:21.730Z,100629.31
2019-06-10T05:08:53.838Z,100631.30
2019-06-10T05:11:26.682Z,100629.79
2019-06-10T05:13:58.423Z,100629.27
2019-06-10T05:16:32.160Z,100627.50
2019-06-10T05:19:03.785Z,100627.80
2019-06-10T05:21:35.261Z,100625.63
2019-06-10T05:24:06.743Z,100627.00
2019-06-10T05:26:38.153Z,100624.59
2019-06-10T05:29:11.919Z,100625.22
2019-06-10T05:31:48.093Z,100623.39
2019-06-10T05:34:20.460Z,100620.98
2019-06-10T05:36:52.628Z,100614.52
2019-06-10T05:39:27.165Z,100617.61
2019-06-10T05:41:56.942Z,100610.55
2019-06-10T05:44:28.519Z,100611.13
2019-06-10T05:47:00.223Z,100613.59
2019-06-10T05:49:35.672Z,100611.81
2019-06-10T05:52:04.661Z,100612.06
2019-06-10T05:54:35.902Z,100612.40
2019-06-10T05:57:07.113Z,100611.09
2019-06-10T05:59:38.403Z,100605.27
2019-06-10T06:02:12.741Z,100615.70
2019-06-10T06:04:42.927Z,100613.58
2019-06-10T06:07:14.293Z,100618.84
2019-06-10T06:09:45.653Z,100623.80
2019-06-10T06:12:16.983Z,100623.24
2019-06-10T06:14:48.361Z,100625.39
2019-06-10T06:17:19.583Z,100617.72
2019-06-10T06:19:53.302Z,100615.35
2019-06-10T06:25:00.033Z,100606.03
2019-06-10T06:27:33.380Z,100613.36
2019-06-10T06:30:10.896Z,100609.89
2019-06-10T06:32:38.211Z,100606.00
2019-06-10T06:35:09.613Z,100599.77
2019-06-10T06:37:42.852Z,100603.36
2019-06-10T06:40:13.852Z,100596.17
2019-06-10T06:42:45.132Z,100588.27
2019-06-10T06:45:16.492Z,100594.16
2019-06-10T06:47:47.752Z,100589.03
2019-06-10T06:50:19.043Z,100588.32
2019-06-10T06:53:18.748Z,100590.34
2019-06-10T06:55:23.449Z,100584.94
2019-06-10T06:57:55.833Z,100592.80
2019-06-10T07:00:48.976Z,100588.90
2019-06-10T07:03:06.818Z,100584.60
2019-06-10T07:05:38.971Z,100579.48
2019-06-10T07:08:13.113Z,100577.81
2019-06-10T07:10:45.632Z,100578.45
2019-06-10T07:13:16.843Z,100578.95
2019-06-10T07:15:48.103Z,100576.69
2019-06-10T07:18:23.107Z,100574.47
2019-06-10T07:20:54.063Z,100571.83
2019-06-10T07:23:25.548Z,100570.91
2019-06-10T07:25:56.822Z,100568.68
2019-06-10T07:28:28.147Z,100561.14
2019-06-10T07:30:59.453Z,100558.55
2019-06-10T07:33:33.121Z,100550.67
2019-06-10T07:36:03.722Z,100549.02
2019-06-10T07:38:37.254Z,100547.50
2019-06-10T07:41:07.619Z,100539.77
2019-06-10T07:43:42.392Z,100536.25
2019-06-10T07:46:13.401Z,100533.09
2019-06-10T07:48:47.889Z,100527.34
2019-06-10T07:51:17.483Z,100521.42
2019-06-10T07:53:48.872Z,100513.52
2019-06-10T07:56:20.055Z,100515.36
2019-06-10T07:58:52.841Z,100511.09
2019-06-10T08:01:24.333Z,100507.73
2019-06-10T08:06:24.603Z,100508.36
2019-06-10T08:08:55.943Z,100504.66
2019-06-10T08:11:27.062Z,100499.03
2019-06-10T08:13:58.392Z,100496.80
2019-06-10T08:16:29.602Z,100491.13
2019-06-10T08:19:22.216Z,100498.63
2019-06-10T08:21:33.602Z,100493.20
2019-06-10T08:24:04.825Z,100489.47
2019-06-10T08:26:37.269Z,100490.33
2019-06-10T08:29:08.502Z,100485.70
2019-06-10T08:31:40.970Z,100489.03
2019-06-10T08:34:13.411Z,100476.31
2019-06-10T08:36:47.118Z,100481.16
2019-06-10T08:39:17.534Z,100479.62
2019-06-10T08:41:49.241Z,100476.61
2019-06-10T08:44:23.021Z,100476.83
2019-06-10T08:46:54.344Z,100476.59
2019-06-10T08:49:25.702Z,100475.21
2019-06-10T08:51:56.942Z,100473.05
2019-06-10T08:54:28.105Z,100475.17
2019-06-10T08:56:59.423Z,100477.55
2019-06-10T08:59:32.549Z,100466.10
2019-06-10T09:02:03.295Z,100461.59
2019-06-10T09:04:34.482Z,100462.06
2019-06-10T09:07:05.922Z,100452.80
2019-06-10T09:09:38.813Z,100447.46
2019-06-10T09:12:27.910Z,100444.13
2019-06-10T09:14:45.239Z,100446.98
2019-06-10T09:17:15.996Z,100441.44
2019-06-10T09:19:49.193Z,100435.09
2019-06-10T09:22:19.962Z,100433.16
2019-06-10T09:24:55.310Z,100433.19
2019-06-10T09:27:26.918Z,100433.69
2019-06-10T09:29:56.956Z,100426.75
2019-06-10T09:32:28.223Z,100429.39
2019-06-10T09:34:59.503Z,100434.57
2019-06-10T09:37:32.059Z,100421.36
2019-06-10T09:40:03.633Z,100412.63
2019-06-10T09:42:35.022Z,100411.55
2019-06-10T09:45:07.177Z,100403.26
2019-06-10T09:47:38.753Z,100410.69
2019-06-10T09:50:12.290Z,100406.03
2019-06-10T09:52:48.445Z,100403.08
2019-06-10T09:55:17.792Z,100407.25
2019-06-10T09:57:54.842Z,100408.15
2019-06-10T10:00:29.185Z,100393.34
2019-06-10T10:02:59.683Z,100397.34
2019-06-10T10:05:33.690Z,100391.28
2019-06-10T10:08:04.544Z,100392.13
2019-06-10T10:10:36.932Z,100374.50
2019-06-10T10:13:08.574Z,100385.13
2019-06-10T10:15:40.039Z,100375.35
2019-06-10T10:18:13.450Z,100377.30
2019-06-10T10:20:47.911Z,100379.13
2019-06-10T10:23:18.132Z,100375.20
2019-06-10T10:25:50.009Z,100378.20
2019-06-10T10:28:25.423Z,100370.61
2019-06-10T10:30:57.924Z,100370.78
2019-06-10T10:33:30.219Z,100370.88
2019-06-10T10:36:02.819Z,100368.04
2019-06-10T10:38:34.852Z,100366.41
2019-06-10T10:41:06.474Z,100363.88
2019-06-10T10:43:38.088Z,100359.49
2019-06-10T10:46:09.528Z,100362.27
2019-06-10T10:48:40.732Z,100352.41
2019-06-10T10:51:12.944Z,100354.77
2019-06-10T10:53:48.329Z,100355.61
2019-06-10T10:56:18.372Z,100352.56
2019-06-10T10:58:52.031Z,100351.81
2019-06-10T11:01:23.723Z,100341.97
2019-06-10T11:03:58.720Z,100343.16
2019-06-10T11:06:28.023Z,100350.35
2019-06-10T11:08:59.202Z,100345.74
2019-06-10T11:11:33.118Z,100331.89
2019-06-10T11:14:03.701Z,100330.83
2019-06-10T11:16:35.067Z,100328.19
2019-06-10T11:19:06.233Z,100326.41
2019-06-10T11:21:37.382Z,100325.64
2019-06-10T11:24:08.508Z,100321.80
2019-06-10T11:26:39.532Z,100317.23
2019-06-10T11:29:10.692Z,100319.55
2019-06-10T11:31:42.552Z,100313.80
2019-06-10T11:34:13.882Z,100307.52
2019-06-10T11:36:46.146Z,100302.02
2019-06-10T11:39:17.404Z,100308.48
2019-06-10T11:41:48.633Z,100302.72
2019-06-10T11:44:19.665Z,100307.91
2019-06-10T11:46:54.066Z,100300.27
2019-06-10T11:49:23.850Z,100310.45
2019-06-10T11:51:56.498Z,100298.11
2019-06-10T11:54:27.843Z,100293.05
2019-06-10T11:56:59.966Z,100285.83
2019-06-10T11:59:32.829Z,100285.73
2019-06-10T12:02:05.984Z,100283.11
2019-06-10T12:04:37.295Z,100272.67
2019-06-10T12:07:08.696Z,100276.47
2019-06-10T12:09:42.528Z,100276.47
2019-06-10T12:12:13.619Z,100270.75
2019-06-10T12:14:44.973Z,100271.42
2019-06-10T12:17:30.851Z,100275.02
2019-06-10T12:19:49.816Z,100261.11
2019-06-10T12:22:22.687Z,100262.11
2019-06-10T12:25:21.131Z,100267.88
2019-06-10T12:27:27.042Z,100263.80
2019-06-10T12:29:59.639Z,100263.22
2019-06-10T12:32:33.137Z,100256.66
2019-06-10T12:35:05.357Z,100250.75
2019-06-10T12:37:36.813Z,100258.81
2019-06-10T12:40:08.263Z,100255.75
2019-06-10T12:42:39.332Z,100256.89
2019-06-10T12:45:12.782Z,100251.33
2019-06-10T12:47:44.222Z,100251.02
2019-06-10T12:50:15.586Z,100255.95
2019-06-10T12:52:46.653Z,100248.64
2019-06-10T12:55:18.159Z,100257.10
2019-06-10T12:57:49.573Z,100252.73
2019-06-10T13:00:25.758Z,100250.47
2019-06-10T13:02:53.783Z,100249.61
2019-06-10T13:05:25.579Z,100250.59
2019-06-10T13:07:57.540Z,100246.61
2019-06-10T13:10:36.434Z,100249.25
2019-06-10T13:13:09.216Z,100247.17
2019-06-10T13:15:43.172Z,100234.59
2019-06-10T13:18:18.982Z,100227.47
2019-06-10T13:20:46.186Z,100224.13
2019-06-10T13:23:26.699Z,100226.14
2019-06-10T13:25:57.071Z,100220.95
2019-06-10T13:28:22.889Z,100208.48
2019-06-10T13:30:55.391Z,100214.12
2019-06-10T13:33:26.763Z,100210.46
2019-06-10T13:35:58.793Z,100204.20
2019-06-10T13:38:32.981Z,100204.79
2019-06-10T13:41:04.255Z,100196.11
2019-06-10T13:43:35.703Z,100188.12
2019-06-10T13:46:09.362Z,100186.67
2019-06-10T13:48:39.602Z,100184.81
2019-06-10T13:51:13.115Z,100180.52
2019-06-10T13:53:46.228Z,100169.47
2019-06-10T13:56:38.069Z,100172.74
2019-06-10T13:58:52.182Z,100169.58
2019-06-10T14:01:22.872Z,100163.80
2019-06-10T14:03:54.063Z,100159.30
2019-06-10T14:06:37.816Z,100160.91
2019-06-10T14:08:58.333Z,100159.03
2019-06-10T14:11:30.262Z,100156.83
2019-06-10T14:14:02.602Z,100152.95
2019-06-10T14:16:35.761Z,100154.84
2019-06-10T14:19:09.155Z,100155.14
2019-06-10T14:21:44.338Z,100152.28
2019-06-10T14:24:16.430Z,100152.67
2019-06-10T14:26:47.732Z,100148.97
2019-06-10T14:29:19.056Z,100155.70
2019-06-10T14:31:54.003Z,100145.69
2019-06-10T14:34:25.062Z,100145.88
2019-06-10T14:36:57.562Z,100145.13
2019-06-10T14:39:32.943Z,100147.94
2019-06-10T14:42:05.647Z,100141.92
2019-06-10T14:44:37.303Z,100141.64
2019-06-10T14:47:08.888Z,100137.62
2019-06-10T14:49:42.469Z,100136.08
2019-06-10T14:52:15.188Z,100121.77
2019-06-10T14:54:46.047Z,100116.02
2019-06-10T14:57:17.282Z,100116.35
2019-06-10T14:59:48.595Z,100112.72
2019-06-10T15:02:19.703Z,100109.72
2019-06-10T15:04:53.215Z,100112.53
2019-06-10T15:07:24.211Z,100104.39
2019-06-10T15:09:55.462Z,100105.34
2019-06-10T15:12:26.842Z,100105.30
2019-06-10T15:14:58.125Z,100096.83
2019-06-10T15:17:29.323Z,100108.55
2019-06-10T15:20:03.552Z,100102.60
2019-06-10T15:22:33.363Z,100106.78
2019-06-10T15:25:04.805Z,100095.59
2019-06-10T15:27:36.956Z,100093.14
2019-06-10T15:30:14.563Z,100093.88
2019-06-10T15:32:42.777Z,100084.16
2019-06-10T15:35:18.289Z,100082.58
2019-06-10T15:37:46.782Z,100082.64
2019-06-10T15:40:18.311Z,100074.17
2019-06-10T15:42:49.723Z,100075.59
2019-06-10T15:45:21.398Z,100077.99
2019-06-10T15:47:53.123Z,100072.52
2019-06-10T15:50:27.408Z,100068.63
2019-06-10T15:52:57.342Z,100067.37
2019-06-10T15:55:55.545Z,100076.27
2019-06-10T15:58:04.614Z,100070.57
2019-06-10T16:00:35.934Z,100070.34
2019-06-10T16:03:07.203Z,100066.42
2019-06-10T16:05:38.603Z,100066.39
2019-06-10T16:08:12.922Z,100069.91
2019-06-10T16:10:43.643Z,100064.51
2019-06-10T16:13:14.783Z,100054.09
2019-06-10T16:15:45.903Z,100044.41
2019-06-10T16:18:18.475Z,100042.81
2019-06-10T16:20:52.821Z,100040.24
2019-06-10T16:23:26.501Z,100038.72
2019-06-10T16:25:56.543Z,100034.79
2019-06-10T16:28:28.147Z,100031.52
2019-06-10T16:30:59.472Z,100034.20
2019-06-10T16:33:32.856Z,100035.00
2019-06-10T16:36:03.662Z,100037.30
2019-06-10T16:38:34.742Z,100037.04
2019-06-10T16:41:06.162Z,100035.78
2019-06-10T16:43:37.400Z,100036.72
2019-06-10T16:46:08.413Z,100024.22
2019-06-10T16:48:39.662Z,100022.03
2019-06-10T16:51:13.238Z,100028.66
2019-06-10T16:53:44.002Z,100035.27
2019-06-10T16:56:17.641Z,100033.12
2019-06-10T16:58:48.943Z,100028.48
2019-06-10T17:01:21.030Z,100029.63
2019-06-10T17:03:52.912Z,100029.59
2019-06-10T17:06:26.884Z,100024.02
2019-06-10T17:08:58.263Z,100019.38
2019-06-10T17:11:30.488Z,100015.59
2019-06-10T17:14:03.111Z,100014.02
2019-06-10T17:16:34.413Z,100011.55
2019-06-10T17:19:06.243Z,100012.00
2019-06-10T17:21:38.065Z,100006.61
2019-06-10T17:24:12.639Z,100006.33
2019-06-10T17:26:43.982Z,100006.51
2019-06-10T17:29:15.503Z,100012.27
2019-06-10T17:31:46.613Z,100002.86
2019-06-10T17:34:19.924Z,100007.02
2019-06-10T17:36:53.881Z,100006.06
2019-06-10T17:39:26.591Z,100007.69
2019-06-10T17:41:57.707Z,100006.58
2019-06-10T17:44:30.517Z,100000.89
2019-06-10T17:47:02.389Z,100000.25
2019-06-10T17:49:34.839Z,99996.09
2019-06-10T17:52:06.322Z,100004.03
2019-06-10T17:54:37.694Z,100000.69
2019-06-10T17:57:08.722Z,100001.12
2019-06-10T17:59:40.212Z,100002.34
2019-06-10T18:02:12.339Z,100011.33
2019-06-10T18:04:43.732Z,100004.64
2019-06-10T18:07:14.893Z,100003.86
2019-06-10T18:09:46.082Z,99998.52
2019-06-10T18:12:17.093Z,99999.55
2019-06-10T18:14:48.312Z,99995.04
2019-06-10T18:17:19.552Z,99995.07
2019-06-10T18:19:53.132Z,100003.00
2019-06-10T18:22:24.416Z,100002.86
2019-06-10T18:24:55.603Z,100006.92
2019-06-10T18:27:26.970Z,100001.59
2019-06-10T18:29:58.363Z,100001.61
2019-06-10T18:32:32.390Z,100001.30
2019-06-10T18:35:03.286Z,100005.02
2019-06-10T18:37:35.972Z,100005.66
2019-06-10T18:40:09.992Z,100014.42
2019-06-10T18:42:41.293Z,100012.27
2019-06-10T18:45:13.023Z,100012.11
2019-06-10T18:47:44.404Z,100023.37
2019-06-10T18:50:15.853Z,100016.31
2019-06-10T18:52:48.227Z,100022.22
2019-06-10T18:55:19.916Z,100022.88
2019-06-10T18:57:52.888Z,100015.33
2019-06-10T19:00:24.813Z,100031.30
2019-06-10T19:03:09.229Z,100035.16
2019-06-10T19:05:28.627Z,100029.93
2019-06-10T19:08:02.309Z,100029.41
2019-06-10T19:10:34.327Z,100029.56
2019-06-10T19:13:05.312Z,100033.59
2019-06-10T19:15:37.748Z,100034.28
2019-06-10T19:18:13.202Z,100040.15
2019-06-10T19:20:45.273Z,100028.55
2019-06-10T19:23:16.479Z,100021.49
2019-06-10T19:25:48.662Z,100024.02
2019-06-10T19:28:19.933Z,100020.66
2019-06-10T19:30:53.553Z,100023.66
2019-06-10T19:33:24.433Z,100020.80
2019-06-10T19:35:55.472Z,100017.09
2019-06-10T19:38:27.192Z,100023.98
2019-06-10T19:40:58.535Z,100023.29
2019-06-10T19:43:29.582Z,100021.60
2019-06-10T19:46:02.965Z,100019.59
2019-06-10T19:48:37.723Z,100018.68
2019-06-10T19:51:06.583Z,100013.12
2019-06-10T19:53:38.894Z,100013.63
2019-06-10T19:56:13.047Z,100013.12
2019-06-10T19:58:46.223Z,100014.62
2019-06-10T20:01:17.295Z,100016.45
2019-06-10T20:03:48.793Z,100013.41
2019-06-10T20:06:19.893Z,100010.37
2019-06-10T20:08:52.289Z,100012.88
2019-06-10T20:11:23.434Z,100010.70
2019-06-10T20:13:54.624Z,100010.16
2019-06-10T20:16:25.852Z,100000.41
2019-06-10T20:18:57.113Z,100006.12
2019-06-10T20:21:28.482Z,100008.44
2019-06-10T20:23:59.492Z,100015.30
2019-06-10T20:26:32.958Z,100014.63
2019-06-10T20:29:04.011Z,100021.11
2019-06-10T20:31:35.807Z,100025.91
2019-06-10T20:34:08.471Z,100025.02
2019-06-10T20:36:42.450Z,100026.30
2019-06-10T20:39:12.700Z,100022.62
2019-06-10T20:41:48.569Z,100024.63
2019-06-10T20:44:16.823Z,100024.60
2019-06-10T20:46:49.250Z,100021.61
2019-06-10T20:49:22.440Z,100019.11
2019-06-10T20:52:06.627Z,100017.28
2019-06-10T20:54:26.452Z,100024.30
2019-06-10T20:56:58.332Z,100024.78
2019-06-10T20:59:29.623Z,100024.38
2019-06-10T21:02:03.063Z,100022.95
2019-06-10T21:04:33.544Z,100021.05
2019-06-10T21:07:04.822Z,100017.29
2019-06-10T21:09:36.853Z,100023.02
2019-06-10T21:12:08.083Z,100019.11
2019-06-10T21:14:39.812Z,100022.38
2019-06-10T21:17:12.207Z,100026.07
2019-06-10T21:19:45.815Z,100029.17
2019-06-10T21:22:17.008Z,100036.73
2019-06-10T21:24:48.781Z,100034.81
2019-06-10T21:27:20.343Z,100033.48
2019-06-10T21:29:54.683Z,100027.39
2019-06-10T21:32:24.255Z,100023.08
2019-06-10T21:34:55.363Z,100018.42
2019-06-10T21:37:26.592Z,100020.42
2019-06-10T21:39:58.522Z,100017.31
2019-06-10T21:42:32.667Z,100016.83
2019-06-10T21:45:06.332Z,100022.98
2019-06-10T21:47:38.173Z,100025.40
2019-06-10T21:50:12.479Z,100027.34
2019-06-10T21:52:45.777Z,100030.57
2019-06-10T21:55:16.243Z,100036.85
2019-06-10T21:57:47.432Z,100038.13
2019-06-10T22:00:22.313Z,100042.94
2019-06-10T22:02:58.448Z,100044.45
2019-06-10T22:05:27.833Z,100037.22
2019-06-10T22:07:58.973Z,100043.56
2019-06-10T22:10:30.246Z,100039.48
2019-06-10T22:13:03.168Z,100040.21
2019-06-10T22:15:33.943Z,100041.14
2019-06-10T22:18:05.113Z,100040.42
2019-06-10T22:20:36.458Z,100041.41
2019-06-10T22:23:07.949Z,100045.49
2019-06-10T22:25:39.164Z,100047.37
2019-06-10T22:28:12.937Z,100038.47
2019-06-10T22:30:43.461Z,100043.06
2019-06-10T22:33:14.584Z,100038.47
2019-06-10T22:35:45.845Z,100033.26
2019-06-10T22:38:17.063Z,100031.92
2019-06-10T22:40:48.874Z,100027.95
2019-06-10T22:43:20.043Z,100021.05
2019-06-10T22:45:53.805Z,100020.56
2019-06-10T22:48:24.506Z,100021.51
2019-06-10T22:50:55.694Z,100024.18
2019-06-10T22:53:26.824Z,100014.58
2019-06-10T22:55:59.251Z,100020.67
2019-06-10T22:58:30.623Z,100017.23
2019-06-10T23:01:04.015Z,100016.47
2019-06-10T23:03:34.744Z,100018.71
2019-06-10T23:06:06.166Z,100019.11
2019-06-10T23:08:37.544Z,100011.02
2019-06-10T23:11:08.983Z,100016.79
2019-06-10T23:13:48.636Z,100010.73
2019-06-10T23:16:22.109Z,100017.31
2019-06-10T23:18:54.946Z,100013.31
2019-06-10T23:21:26.023Z,100017.41
2019-06-10T23:23:58.541Z,100021.14
2019-06-10T23:26:29.843Z,100023.81
2019-06-10T23:29:03.058Z,100013.48
2019-06-10T23:31:48.787Z,100017.22
2019-06-10T23:34:07.383Z,100009.90
2019-06-10T23:36:38.786Z,100007.58
2019-06-10T23:39:10.143Z,100001.76
2019-06-10T23:41:43.248Z,100002.19
2019-06-10T23:44:14.203Z,100004.30
2019-06-10T23:46:45.563Z,100001.06
2019-06-10T23:49:16.653Z,100002.31
2019-06-10T23:51:47.843Z,100006.70
2019-06-10T23:54:19.113Z,100001.89
2019-06-10T23:56:50.303Z,99995.78
2019-06-10T23:59:22.609Z,99996.14
